sensor_id;sensor_type;location;lat;lon;timestamp;temperature;humidity
26641;DHT22;14269;47.358;0.724;2024-02-23T00:02:01;14.0;45.0
26641;DHT22;14269;47.358;0.724;2024-02-23T00:04:33;14.0;45.0
26641;DHT22;14269;47.358;0.724;2024-02-23T00:07:04;14.0;45.0
26641;DHT22;14269;47.358;0.724;2024-02-23T00:09:36;14.0;45.0
26641;DHT22;14269;47.358;0.724;2024-02-23T00:12:08;14.0;45.0
26641;DHT22;14269;47.358;0.724;2024-02-23T00:14:39;14.0;45.0
26641;DHT22;14269;47.358;0.724;2024-02-23T00:17:12;14.0;45.0
26641;DHT22;14269;47.358;0.724;2024-02-23T00:19:45;14.0;45.0
26641;DHT22;14269;47.358;0.724;2024-02-23T00:22:25;14.0;44.0
26641;DHT22;14269;47.358;0.724;2024-02-23T00:25:06;14.0;45.0
26641;DHT22;14269;47.358;0.724;2024-02-23T00:27:39;14.0;46.0
26641;DHT22;14269;47.358;0.724;2024-02-23T00:30:19;14.0;46.0
26641;DHT22;14269;47.358;0.724;2024-02-23T00:32:51;14.0;47.0
26641;DHT22;14269;47.358;0.724;2024-02-23T00:35:23;13.0;47.0
26641;DHT22;14269;47.358;0.724;2024-02-23T00:37:54;14.0;47.0
26641;DHT22;14269;47.358;0.724;2024-02-23T00:40:26;14.0;46.0
26641;DHT22;14269;47.358;0.724;2024-02-23T00:43:00;14.0;45.0
26641;DHT22;14269;47.358;0.724;2024-02-23T00:45:40;14.0;46.0
26641;DHT22;14269;47.358;0.724;2024-02-23T00:48:13;14.0;46.0
26641;DHT22;14269;47.358;0.724;2024-02-23T00:50:53;13.0;46.0
26641;DHT22;14269;47.358;0.724;2024-02-23T00:53:24;13.0;46.0
26641;DHT22;14269;47.358;0.724;2024-02-23T00:55:56;14.0;46.0
26641;DHT22;14269;47.358;0.724;2024-02-23T00:58:28;14.0;45.0
26641;DHT22;14269;47.358;0.724;2024-02-23T01:01:00;14.0;45.0
26641;DHT22;14269;47.358;0.724;2024-02-23T01:03:31;14.0;46.0
26641;DHT22;14269;47.358;0.724;2024-02-23T01:06:03;14.0;45.0
26641;DHT22;14269;47.358;0.724;2024-02-23T01:08:35;14.0;46.0
26641;DHT22;14269;47.358;0.724;2024-02-23T01:11:17;14.0;44.0
26641;DHT22;14269;47.358;0.724;2024-02-23T01:13:48;14.0;45.0
26641;DHT22;14269;47.358;0.724;2024-02-23T01:16:19;14.0;44.0
26641;DHT22;14269;47.358;0.724;2024-02-23T01:18:51;13.0;46.0
26641;DHT22;14269;47.358;0.724;2024-02-23T01:21:23;14.0;45.0
26641;DHT22;14269;47.358;0.724;2024-02-23T01:23:54;14.0;45.0
26641;DHT22;14269;47.358;0.724;2024-02-23T01:26:36;14.0;46.0
26641;DHT22;14269;47.358;0.724;2024-02-23T01:29:08;14.0;45.0
26641;DHT22;14269;47.358;0.724;2024-02-23T01:31:39;13.0;48.0
26641;DHT22;14269;47.358;0.724;2024-02-23T01:34:11;14.0;46.0
26641;DHT22;14269;47.358;0.724;2024-02-23T01:36:43;13.0;46.0
26641;DHT22;14269;47.358;0.724;2024-02-23T01:39:14;14.0;45.0
26641;DHT22;14269;47.358;0.724;2024-02-23T01:41:46;14.0;46.0
26641;DHT22;14269;47.358;0.724;2024-02-23T01:44:18;14.0;46.0
26641;DHT22;14269;47.358;0.724;2024-02-23T01:46:59;14.0;45.0
26641;DHT22;14269;47.358;0.724;2024-02-23T01:49:33;14.0;46.0
26641;DHT22;14269;47.358;0.724;2024-02-23T01:52:13;13.0;46.0
26641;DHT22;14269;47.358;0.724;2024-02-23T01:54:45;14.0;45.0
26641;DHT22;14269;47.358;0.724;2024-02-23T01:57:16;13.0;47.0
26641;DHT22;14269;47.358;0.724;2024-02-23T01:59:48;14.0;45.0
26641;DHT22;14269;47.358;0.724;2024-02-23T02:02:30;13.0;48.0
26641;DHT22;14269;47.358;0.724;2024-02-23T02:05:01;14.0;46.0
26641;DHT22;14269;47.358;0.724;2024-02-23T02:07:33;14.0;45.0
26641;DHT22;14269;47.358;0.724;2024-02-23T02:10:08;14.0;45.0
26641;DHT22;14269;47.358;0.724;2024-02-23T02:12:46;14.0;46.0
26641;DHT22;14269;47.358;0.724;2024-02-23T02:15:18;14.0;46.0
26641;DHT22;14269;47.358;0.724;2024-02-23T02:18:00;14.0;46.0
26641;DHT22;14269;47.358;0.724;2024-02-23T02:20:33;13.0;48.0
26641;DHT22;14269;47.358;0.724;2024-02-23T02:23:13;13.0;47.0
26641;DHT22;14269;47.358;0.724;2024-02-23T02:25:56;14.0;46.0
26641;DHT22;14269;47.358;0.724;2024-02-23T02:28:36;14.0;46.0
26641;DHT22;14269;47.358;0.724;2024-02-23T02:31:08;13.0;47.0
26641;DHT22;14269;47.358;0.724;2024-02-23T02:33:40;13.0;47.0
26641;DHT22;14269;47.358;0.724;2024-02-23T02:36:11;13.0;46.0
26641;DHT22;14269;47.358;0.724;2024-02-23T02:38:43;14.0;45.0
26641;DHT22;14269;47.358;0.724;2024-02-23T02:41:17;14.0;46.0
26641;DHT22;14269;47.358;0.724;2024-02-23T02:43:56;13.0;47.0
26641;DHT22;14269;47.358;0.724;2024-02-23T02:46:28;14.0;46.0
26641;DHT22;14269;47.358;0.724;2024-02-23T02:49:00;14.0;45.0
26641;DHT22;14269;47.358;0.724;2024-02-23T02:51:31;14.0;45.0
26641;DHT22;14269;47.358;0.724;2024-02-23T02:54:03;14.0;45.0
26641;DHT22;14269;47.358;0.724;2024-02-23T02:56:35;13.0;46.0
26641;DHT22;14269;47.358;0.724;2024-02-23T02:59:06;14.0;46.0
26641;DHT22;14269;47.358;0.724;2024-02-23T03:01:39;14.0;45.0
26641;DHT22;14269;47.358;0.724;2024-02-23T03:04:10;13.0;46.0
26641;DHT22;14269;47.358;0.724;2024-02-23T03:06:41;13.0;46.0
26641;DHT22;14269;47.358;0.724;2024-02-23T03:09:13;14.0;46.0
26641;DHT22;14269;47.358;0.724;2024-02-23T03:11:45;13.0;47.0
26641;DHT22;14269;47.358;0.724;2024-02-23T03:14:18;13.0;48.0
26641;DHT22;14269;47.358;0.724;2024-02-23T03:16:58;14.0;46.0
26641;DHT22;14269;47.358;0.724;2024-02-23T03:19:30;13.0;47.0
26641;DHT22;14269;47.358;0.724;2024-02-23T03:22:02;14.0;47.0
26641;DHT22;14269;47.358;0.724;2024-02-23T03:24:33;14.0;47.0
26641;DHT22;14269;47.358;0.724;2024-02-23T03:27:04;14.0;46.0
26641;DHT22;14269;47.358;0.724;2024-02-23T03:29:38;14.0;47.0
26641;DHT22;14269;47.358;0.724;2024-02-23T03:32:18;14.0;46.0
26641;DHT22;14269;47.358;0.724;2024-02-23T03:34:50;14.0;46.0
26641;DHT22;14269;47.358;0.724;2024-02-23T03:37:21;13.0;47.0
26641;DHT22;14269;47.358;0.724;2024-02-23T03:39:53;13.0;48.0
26641;DHT22;14269;47.358;0.724;2024-02-23T03:42:25;13.0;48.0
26641;DHT22;14269;47.358;0.724;2024-02-23T03:44:56;14.0;47.0
26641;DHT22;14269;47.358;0.724;2024-02-23T03:47:28;13.0;48.0
26641;DHT22;14269;47.358;0.724;2024-02-23T03:49:59;13.0;48.0
26641;DHT22;14269;47.358;0.724;2024-02-23T03:52:31;14.0;47.0
26641;DHT22;14269;47.358;0.724;2024-02-23T03:55:04;13.0;49.0
26641;DHT22;14269;47.358;0.724;2024-02-23T03:57:44;13.0;48.0
26641;DHT22;14269;47.358;0.724;2024-02-23T04:00:17;12.0;50.0
26641;DHT22;14269;47.358;0.724;2024-02-23T04:02:58;13.0;49.0
26641;DHT22;14269;47.358;0.724;2024-02-23T04:05:30;13.0;49.0
26641;DHT22;14269;47.358;0.724;2024-02-23T04:08:01;13.0;50.0
26641;DHT22;14269;47.358;0.724;2024-02-23T04:10:33;13.0;48.0
26641;DHT22;14269;47.358;0.724;2024-02-23T04:13:04;13.0;48.0
26641;DHT22;14269;47.358;0.724;2024-02-23T04:15:36;14.0;47.0
26641;DHT22;14269;47.358;0.724;2024-02-23T04:18:08;13.0;49.0
26641;DHT22;14269;47.358;0.724;2024-02-23T04:20:39;13.0;48.0
26641;DHT22;14269;47.358;0.724;2024-02-23T04:23:11;14.0;47.0
26641;DHT22;14269;47.358;0.724;2024-02-23T04:25:43;14.0;47.0
26641;DHT22;14269;47.358;0.724;2024-02-23T04:28:14;13.0;48.0
26641;DHT22;14269;47.358;0.724;2024-02-23T04:30:46;14.0;47.0
26641;DHT22;14269;47.358;0.724;2024-02-23T04:33:18;14.0;47.0
26641;DHT22;14269;47.358;0.724;2024-02-23T04:35:49;14.0;46.0
26641;DHT22;14269;47.358;0.724;2024-02-23T04:38:21;13.0;48.0
26641;DHT22;14269;47.358;0.724;2024-02-23T04:40:53;14.0;48.0
26641;DHT22;14269;47.358;0.724;2024-02-23T04:43:24;13.0;48.0
26641;DHT22;14269;47.358;0.724;2024-02-23T04:45:56;14.0;47.0
26641;DHT22;14269;47.358;0.724;2024-02-23T04:48:27;13.0;48.0
26641;DHT22;14269;47.358;0.724;2024-02-23T04:51:09;14.0;48.0
26641;DHT22;14269;47.358;0.724;2024-02-23T04:53:41;14.0;47.0
26641;DHT22;14269;47.358;0.724;2024-02-23T04:56:13;14.0;48.0
26641;DHT22;14269;47.358;0.724;2024-02-23T04:58:44;14.0;48.0
26641;DHT22;14269;47.358;0.724;2024-02-23T05:01:16;13.0;48.0
26641;DHT22;14269;47.358;0.724;2024-02-23T05:03:48;14.0;48.0
26641;DHT22;14269;47.358;0.724;2024-02-23T05:06:19;14.0;46.0
26641;DHT22;14269;47.358;0.724;2024-02-23T05:08:51;13.0;48.0
26641;DHT22;14269;47.358;0.724;2024-02-23T05:11:22;13.0;49.0
26641;DHT22;14269;47.358;0.724;2024-02-23T05:13:54;14.0;47.0
26641;DHT22;14269;47.358;0.724;2024-02-23T05:16:26;14.0;47.0
26641;DHT22;14269;47.358;0.724;2024-02-23T05:18:57;14.0;48.0
26641;DHT22;14269;47.358;0.724;2024-02-23T05:21:29;14.0;47.0
26641;DHT22;14269;47.358;0.724;2024-02-23T05:24:01;14.0;47.0
26641;DHT22;14269;47.358;0.724;2024-02-23T05:26:32;13.0;48.0
26641;DHT22;14269;47.358;0.724;2024-02-23T05:29:05;14.0;47.0
26641;DHT22;14269;47.358;0.724;2024-02-23T05:31:48;14.0;47.0
26641;DHT22;14269;47.358;0.724;2024-02-23T05:34:27;14.0;47.0
26641;DHT22;14269;47.358;0.724;2024-02-23T05:36:59;14.0;46.0
26641;DHT22;14269;47.358;0.724;2024-02-23T05:39:31;13.0;48.0
26641;DHT22;14269;47.358;0.724;2024-02-23T05:42:03;13.0;48.0
26641;DHT22;14269;47.358;0.724;2024-02-23T05:44:34;13.0;49.0
26641;DHT22;14269;47.358;0.724;2024-02-23T05:47:06;13.0;49.0
26641;DHT22;14269;47.358;0.724;2024-02-23T05:49:37;13.0;49.0
26641;DHT22;14269;47.358;0.724;2024-02-23T05:52:09;13.0;48.0
26641;DHT22;14269;47.358;0.724;2024-02-23T05:54:41;13.0;47.0
26641;DHT22;14269;47.358;0.724;2024-02-23T05:57:12;13.0;48.0
26641;DHT22;14269;47.358;0.724;2024-02-23T05:59:45;13.0;48.0
26641;DHT22;14269;47.358;0.724;2024-02-23T06:02:26;13.0;47.0
26641;DHT22;14269;47.358;0.724;2024-02-23T06:04:57;13.0;48.0
26641;DHT22;14269;47.358;0.724;2024-02-23T06:07:29;13.0;48.0
26641;DHT22;14269;47.358;0.724;2024-02-23T06:10:01;13.0;48.0
26641;DHT22;14269;47.358;0.724;2024-02-23T06:12:32;13.0;47.0
26641;DHT22;14269;47.358;0.724;2024-02-23T06:15:05;13.0;49.0
26641;DHT22;14269;47.358;0.724;2024-02-23T06:17:46;13.0;48.0
26641;DHT22;14269;47.358;0.724;2024-02-23T06:20:17;13.0;48.0
26641;DHT22;14269;47.358;0.724;2024-02-23T06:22:49;13.0;48.0
26641;DHT22;14269;47.358;0.724;2024-02-23T06:25:20;13.0;48.0
26641;DHT22;14269;47.358;0.724;2024-02-23T06:27:52;13.0;47.0
26641;DHT22;14269;47.358;0.724;2024-02-23T06:30:24;13.0;47.0
26641;DHT22;14269;47.358;0.724;2024-02-23T06:32:55;13.0;48.0
26641;DHT22;14269;47.358;0.724;2024-02-23T06:35:27;14.0;47.0
26641;DHT22;14269;47.358;0.724;2024-02-23T06:37:59;13.0;49.0
26641;DHT22;14269;47.358;0.724;2024-02-23T06:40:30;13.0;47.0
26641;DHT22;14269;47.358;0.724;2024-02-23T06:43:02;13.0;49.0
26641;DHT22;14269;47.358;0.724;2024-02-23T06:45:34;13.0;49.0
26641;DHT22;14269;47.358;0.724;2024-02-23T06:48:06;13.0;49.0
26641;DHT22;14269;47.358;0.724;2024-02-23T06:50:47;13.0;50.0
26641;DHT22;14269;47.358;0.724;2024-02-23T06:53:19;13.0;49.0
26641;DHT22;14269;47.358;0.724;2024-02-23T06:55:50;13.0;48.0
26641;DHT22;14269;47.358;0.724;2024-02-23T06:58:22;13.0;49.0
26641;DHT22;14269;47.358;0.724;2024-02-23T07:00:54;13.0;49.0
26641;DHT22;14269;47.358;0.724;2024-02-23T07:03:25;13.0;48.0
26641;DHT22;14269;47.358;0.724;2024-02-23T07:05:57;13.0;48.0
26641;DHT22;14269;47.358;0.724;2024-02-23T07:08:30;13.0;49.0
26641;DHT22;14269;47.358;0.724;2024-02-23T07:11:00;13.0;49.0
26641;DHT22;14269;47.358;0.724;2024-02-23T07:13:32;13.0;49.0
26641;DHT22;14269;47.358;0.724;2024-02-23T07:16:05;13.0;50.0
26641;DHT22;14269;47.358;0.724;2024-02-23T07:18:45;13.0;49.0
26641;DHT22;14269;47.358;0.724;2024-02-23T07:21:17;13.0;49.0
26641;DHT22;14269;47.358;0.724;2024-02-23T07:23:49;13.0;48.0
26641;DHT22;14269;47.358;0.724;2024-02-23T07:26:22;13.0;49.0
26641;DHT22;14269;47.358;0.724;2024-02-23T07:29:02;13.0;48.0
26641;DHT22;14269;47.358;0.724;2024-02-23T07:31:34;14.0;47.0
26641;DHT22;14269;47.358;0.724;2024-02-23T07:34:05;14.0;46.0
26641;DHT22;14269;47.358;0.724;2024-02-23T07:36:37;13.0;47.0
26641;DHT22;14269;47.358;0.724;2024-02-23T07:39:09;13.0;47.0
26641;DHT22;14269;47.358;0.724;2024-02-23T07:41:40;14.0;46.0
26641;DHT22;14269;47.358;0.724;2024-02-23T07:44:12;14.0;46.0
26641;DHT22;14269;47.358;0.724;2024-02-23T07:46:43;14.0;45.0
26641;DHT22;14269;47.358;0.724;2024-02-23T07:49:15;13.0;48.0
26641;DHT22;14269;47.358;0.724;2024-02-23T07:51:47;14.0;46.0
26641;DHT22;14269;47.358;0.724;2024-02-23T07:54:18;14.0;46.0
26641;DHT22;14269;47.358;0.724;2024-02-23T07:56:50;14.0;47.0
26641;DHT22;14269;47.358;0.724;2024-02-23T07:59:22;14.0;47.0
26641;DHT22;14269;47.358;0.724;2024-02-23T08:01:53;13.0;48.0
26641;DHT22;14269;47.358;0.724;2024-02-23T08:04:35;15.0;45.0
26641;DHT22;14269;47.358;0.724;2024-02-23T08:07:07;14.0;46.0
26641;DHT22;14269;47.358;0.724;2024-02-23T08:09:39;14.0;46.0
26641;DHT22;14269;47.358;0.724;2024-02-23T08:12:11;14.0;46.0
26641;DHT22;14269;47.358;0.724;2024-02-23T08:14:53;15.0;45.0
26641;DHT22;14269;47.358;0.724;2024-02-23T08:17:34;15.0;44.0
26641;DHT22;14269;47.358;0.724;2024-02-23T08:20:06;14.0;46.0
26641;DHT22;14269;47.358;0.724;2024-02-23T08:22:47;15.0;45.0
26641;DHT22;14269;47.358;0.724;2024-02-23T08:25:19;15.0;45.0
26641;DHT22;14269;47.358;0.724;2024-02-23T08:27:50;14.0;46.0
26641;DHT22;14269;47.358;0.724;2024-02-23T08:30:22;16.0;44.0
26641;DHT22;14269;47.358;0.724;2024-02-23T08:32:54;15.0;45.0
26641;DHT22;14269;47.358;0.724;2024-02-23T08:35:26;15.0;45.0
26641;DHT22;14269;47.358;0.724;2024-02-23T08:37:57;15.0;44.0
26641;DHT22;14269;47.358;0.724;2024-02-23T08:40:28;15.0;44.0
26641;DHT22;14269;47.358;0.724;2024-02-23T08:43:00;15.0;45.0
26641;DHT22;14269;47.358;0.724;2024-02-23T08:45:32;14.0;47.0
26641;DHT22;14269;47.358;0.724;2024-02-23T08:48:04;15.0;46.0
26641;DHT22;14269;47.358;0.724;2024-02-23T08:50:35;16.0;43.0
26641;DHT22;14269;47.358;0.724;2024-02-23T08:53:07;16.0;42.0
26641;DHT22;14269;47.358;0.724;2024-02-23T08:55:38;16.0;43.0
26641;DHT22;14269;47.358;0.724;2024-02-23T08:58:10;15.0;43.0
26641;DHT22;14269;47.358;0.724;2024-02-23T09:00:42;16.0;44.0
26641;DHT22;14269;47.358;0.724;2024-02-23T09:03:14;16.0;44.0
26641;DHT22;14269;47.358;0.724;2024-02-23T09:05:47;15.0;44.0
26641;DHT22;14269;47.358;0.724;2024-02-23T09:08:27;16.0;44.0
26641;DHT22;14269;47.358;0.724;2024-02-23T09:10:58;15.0;45.0
26641;DHT22;14269;47.358;0.724;2024-02-23T09:13:30;15.0;46.0
26641;DHT22;14269;47.358;0.724;2024-02-23T09:16:02;15.0;45.0
26641;DHT22;14269;47.358;0.724;2024-02-23T09:18:43;15.0;45.0
26641;DHT22;14269;47.358;0.724;2024-02-23T09:21:15;15.0;45.0
26641;DHT22;14269;47.358;0.724;2024-02-23T09:23:47;15.0;44.0
26641;DHT22;14269;47.358;0.724;2024-02-23T09:26:18;15.0;45.0
26641;DHT22;14269;47.358;0.724;2024-02-23T09:28:50;16.0;43.0
26641;DHT22;14269;47.358;0.724;2024-02-23T09:31:22;15.0;44.0
26641;DHT22;14269;47.358;0.724;2024-02-23T09:33:53;16.0;43.0
26641;DHT22;14269;47.358;0.724;2024-02-23T09:36:25;15.0;44.0
26641;DHT22;14269;47.358;0.724;2024-02-23T09:38:57;15.0;45.0
26641;DHT22;14269;47.358;0.724;2024-02-23T09:41:28;15.0;44.0
26641;DHT22;14269;47.358;0.724;2024-02-23T09:44:01;15.0;44.0
26641;DHT22;14269;47.358;0.724;2024-02-23T09:46:43;14.0;46.0
26641;DHT22;14269;47.358;0.724;2024-02-23T09:49:24;15.0;45.0
26641;DHT22;14269;47.358;0.724;2024-02-23T09:51:55;14.0;46.0
26641;DHT22;14269;47.358;0.724;2024-02-23T09:54:27;15.0;44.0
26641;DHT22;14269;47.358;0.724;2024-02-23T09:56:58;16.0;43.0
26641;DHT22;14269;47.358;0.724;2024-02-23T09:59:31;15.0;44.0
26641;DHT22;14269;47.358;0.724;2024-02-23T10:02:15;15.0;43.0
26641;DHT22;14269;47.358;0.724;2024-02-23T10:04:54;15.0;44.0
26641;DHT22;14269;47.358;0.724;2024-02-23T10:07:35;15.0;44.0
26641;DHT22;14269;47.358;0.724;2024-02-23T10:10:08;15.0;43.0
26641;DHT22;14269;47.358;0.724;2024-02-23T10:12:49;15.0;43.0
26641;DHT22;14269;47.358;0.724;2024-02-23T10:15:20;16.0;42.0
26641;DHT22;14269;47.358;0.724;2024-02-23T10:17:54;16.0;42.0
26641;DHT22;14269;47.358;0.724;2024-02-23T10:20:34;16.0;41.0
26641;DHT22;14269;47.358;0.724;2024-02-23T10:23:15;17.0;40.0
26641;DHT22;14269;47.358;0.724;2024-02-23T10:25:47;17.0;40.0
26641;DHT22;14269;47.358;0.724;2024-02-23T10:28:22;18.0;38.0
26641;DHT22;14269;47.358;0.724;2024-02-23T10:31:02;18.0;37.0
26641;DHT22;14269;47.358;0.724;2024-02-23T10:33:44;17.0;39.0
26641;DHT22;14269;47.358;0.724;2024-02-23T10:36:26;17.0;40.0
26641;DHT22;14269;47.358;0.724;2024-02-23T10:39:07;16.0;41.0
26641;DHT22;14269;47.358;0.724;2024-02-23T10:41:57;18.0;38.0
26641;DHT22;14269;47.358;0.724;2024-02-23T10:44:40;17.0;39.0
26641;DHT22;14269;47.358;0.724;2024-02-23T10:47:11;17.0;39.0
26641;DHT22;14269;47.358;0.724;2024-02-23T10:49:45;17.0;41.0
26641;DHT22;14269;47.358;0.724;2024-02-23T10:52:26;17.0;41.0
26641;DHT22;14269;47.358;0.724;2024-02-23T10:55:09;17.0;39.0
26641;DHT22;14269;47.358;0.724;2024-02-23T10:57:48;18.0;38.0
26641;DHT22;14269;47.358;0.724;2024-02-23T11:00:31;18.0;39.0
26641;DHT22;14269;47.358;0.724;2024-02-23T11:03:12;17.0;39.0
26641;DHT22;14269;47.358;0.724;2024-02-23T11:05:54;17.0;40.0
26641;DHT22;14269;47.358;0.724;2024-02-23T11:08:27;16.0;41.0
26641;DHT22;14269;47.358;0.724;2024-02-23T11:11:08;17.0;40.0
26641;DHT22;14269;47.358;0.724;2024-02-23T11:13:48;17.0;40.0
26641;DHT22;14269;47.358;0.724;2024-02-23T11:16:22;17.0;40.0
26641;DHT22;14269;47.358;0.724;2024-02-23T11:19:05;18.0;40.0
26641;DHT22;14269;47.358;0.724;2024-02-23T11:21:52;17.0;40.0
26641;DHT22;14269;47.358;0.724;2024-02-23T11:24:27;17.0;40.0
26641;DHT22;14269;47.358;0.724;2024-02-23T11:27:13;17.0;39.0
26641;DHT22;14269;47.358;0.724;2024-02-23T11:29:59;17.0;39.0
26641;DHT22;14269;47.358;0.724;2024-02-23T11:32:42;18.0;37.0
26641;DHT22;14269;47.358;0.724;2024-02-23T11:35:26;19.0;37.0
26641;DHT22;14269;47.358;0.724;2024-02-23T11:38:06;18.0;37.0
26641;DHT22;14269;47.358;0.724;2024-02-23T11:40:46;19.0;36.0
26641;DHT22;14269;47.358;0.724;2024-02-23T11:43:28;18.0;38.0
26641;DHT22;14269;47.358;0.724;2024-02-23T11:45:59;18.0;39.0
26641;DHT22;14269;47.358;0.724;2024-02-23T11:48:31;18.0;37.0
26641;DHT22;14269;47.358;0.724;2024-02-23T11:51:03;18.0;38.0
26641;DHT22;14269;47.358;0.724;2024-02-23T11:53:35;19.0;36.0
26641;DHT22;14269;47.358;0.724;2024-02-23T11:56:18;18.0;36.0
26641;DHT22;14269;47.358;0.724;2024-02-23T11:58:58;18.0;37.0
26641;DHT22;14269;47.358;0.724;2024-02-23T12:01:30;17.0;39.0
26641;DHT22;14269;47.358;0.724;2024-02-23T12:04:11;17.0;39.0
26641;DHT22;14269;47.358;0.724;2024-02-23T12:06:43;17.0;38.0
26641;DHT22;14269;47.358;0.724;2024-02-23T12:09:15;17.0;38.0
26641;DHT22;14269;47.358;0.724;2024-02-23T12:11:46;17.0;39.0
26641;DHT22;14269;47.358;0.724;2024-02-23T12:14:18;17.0;41.0
26641;DHT22;14269;47.358;0.724;2024-02-23T12:16:51;17.0;41.0
26641;DHT22;14269;47.358;0.724;2024-02-23T12:19:31;16.0;41.0
26641;DHT22;14269;47.358;0.724;2024-02-23T12:22:04;17.0;42.0
26641;DHT22;14269;47.358;0.724;2024-02-23T12:24:45;16.0;44.0
26641;DHT22;14269;47.358;0.724;2024-02-23T12:27:17;17.0;43.0
26641;DHT22;14269;47.358;0.724;2024-02-23T12:29:51;17.0;42.0
26641;DHT22;14269;47.358;0.724;2024-02-23T12:32:30;18.0;42.0
26641;DHT22;14269;47.358;0.724;2024-02-23T12:35:01;18.0;42.0
26641;DHT22;14269;47.358;0.724;2024-02-23T12:37:35;17.0;42.0
26641;DHT22;14269;47.358;0.724;2024-02-23T12:40:15;17.0;42.0
26641;DHT22;14269;47.358;0.724;2024-02-23T12:42:48;17.0;41.0
26641;DHT22;14269;47.358;0.724;2024-02-23T12:45:28;17.0;42.0
26641;DHT22;14269;47.358;0.724;2024-02-23T12:48:00;16.0;43.0
26641;DHT22;14269;47.358;0.724;2024-02-23T12:50:31;16.0;43.0
26641;DHT22;14269;47.358;0.724;2024-02-23T12:53:04;16.0;42.0
26641;DHT22;14269;47.358;0.724;2024-02-23T12:55:36;17.0;41.0
26641;DHT22;14269;47.358;0.724;2024-02-23T12:58:16;17.0;40.0
26641;DHT22;14269;47.358;0.724;2024-02-23T13:00:48;19.0;38.0
26641;DHT22;14269;47.358;0.724;2024-02-23T13:03:20;19.0;37.0
26641;DHT22;14269;47.358;0.724;2024-02-23T13:05:51;19.0;38.0
26641;DHT22;14269;47.358;0.724;2024-02-23T13:08:24;18.0;37.0
26641;DHT22;14269;47.358;0.724;2024-02-23T13:11:05;20.0;35.0
26641;DHT22;14269;47.358;0.724;2024-02-23T13:13:37;18.0;38.0
26641;DHT22;14269;47.358;0.724;2024-02-23T13:16:08;18.0;38.0
26641;DHT22;14269;47.358;0.724;2024-02-23T13:18:40;19.0;37.0
26641;DHT22;14269;47.358;0.724;2024-02-23T13:21:13;19.0;37.0
26641;DHT22;14269;47.358;0.724;2024-02-23T13:23:53;17.0;40.0
26641;DHT22;14269;47.358;0.724;2024-02-23T13:26:25;16.0;43.0
26641;DHT22;14269;47.358;0.724;2024-02-23T13:28:56;17.0;40.0
26641;DHT22;14269;47.358;0.724;2024-02-23T13:31:28;17.0;40.0
26641;DHT22;14269;47.358;0.724;2024-02-23T13:34:00;17.0;42.0
26641;DHT22;14269;47.358;0.724;2024-02-23T13:36:31;17.0;41.0
26641;DHT22;14269;47.358;0.724;2024-02-23T13:39:03;17.0;41.0
26641;DHT22;14269;47.358;0.724;2024-02-23T13:41:45;17.0;42.0
26641;DHT22;14269;47.358;0.724;2024-02-23T13:44:17;17.0;42.0
26641;DHT22;14269;47.358;0.724;2024-02-23T13:46:48;17.0;41.0
26641;DHT22;14269;47.358;0.724;2024-02-23T13:49:20;17.0;41.0
26641;DHT22;14269;47.358;0.724;2024-02-23T13:51:51;16.0;43.0
26641;DHT22;14269;47.358;0.724;2024-02-23T13:54:23;17.0;42.0
26641;DHT22;14269;47.358;0.724;2024-02-23T13:56:54;17.0;42.0
26641;DHT22;14269;47.358;0.724;2024-02-23T13:59:26;16.0;44.0
26641;DHT22;14269;47.358;0.724;2024-02-23T14:01:58;17.0;43.0
26641;DHT22;14269;47.358;0.724;2024-02-23T14:04:30;16.0;44.0
26641;DHT22;14269;47.358;0.724;2024-02-23T14:07:11;16.0;45.0
26641;DHT22;14269;47.358;0.724;2024-02-23T14:09:43;16.0;44.0
26641;DHT22;14269;47.358;0.724;2024-02-23T14:12:15;16.0;44.0
26641;DHT22;14269;47.358;0.724;2024-02-23T14:14:46;16.0;44.0
26641;DHT22;14269;47.358;0.724;2024-02-23T14:17:18;16.0;44.0
26641;DHT22;14269;47.358;0.724;2024-02-23T14:19:50;16.0;43.0
26641;DHT22;14269;47.358;0.724;2024-02-23T14:22:31;15.0;45.0
26641;DHT22;14269;47.358;0.724;2024-02-23T14:25:03;15.0;45.0
26641;DHT22;14269;47.358;0.724;2024-02-23T14:27:34;15.0;45.0
26641;DHT22;14269;47.358;0.724;2024-02-23T14:30:08;15.0;44.0
26641;DHT22;14269;47.358;0.724;2024-02-23T14:32:48;15.0;45.0
26641;DHT22;14269;47.358;0.724;2024-02-23T14:35:20;15.0;45.0
26641;DHT22;14269;47.358;0.724;2024-02-23T14:37:51;15.0;45.0
26641;DHT22;14269;47.358;0.724;2024-02-23T14:40:23;15.0;44.0
26641;DHT22;14269;47.358;0.724;2024-02-23T14:42:54;16.0;44.0
26641;DHT22;14269;47.358;0.724;2024-02-23T14:45:28;16.0;44.0
26641;DHT22;14269;47.358;0.724;2024-02-23T14:48:08;15.0;44.0
26641;DHT22;14269;47.358;0.724;2024-02-23T14:50:39;16.0;42.0
26641;DHT22;14269;47.358;0.724;2024-02-23T14:53:12;16.0;42.0
26641;DHT22;14269;47.358;0.724;2024-02-23T14:55:43;16.0;42.0
26641;DHT22;14269;47.358;0.724;2024-02-23T14:58:14;16.0;42.0
26641;DHT22;14269;47.358;0.724;2024-02-23T15:00:47;15.0;44.0
26641;DHT22;14269;47.358;0.724;2024-02-23T15:03:18;15.0;47.0
26641;DHT22;14269;47.358;0.724;2024-02-23T15:05:49;15.0;47.0
26641;DHT22;14269;47.358;0.724;2024-02-23T15:08:21;15.0;46.0
26641;DHT22;14269;47.358;0.724;2024-02-23T15:10:53;15.0;45.0
26641;DHT22;14269;47.358;0.724;2024-02-23T15:13:25;15.0;45.0
26641;DHT22;14269;47.358;0.724;2024-02-23T15:15:56;15.0;45.0
26641;DHT22;14269;47.358;0.724;2024-02-23T15:18:28;16.0;45.0
26641;DHT22;14269;47.358;0.724;2024-02-23T15:20:59;16.0;44.0
26641;DHT22;14269;47.358;0.724;2024-02-23T15:23:31;16.0;43.0
26641;DHT22;14269;47.358;0.724;2024-02-23T15:26:03;16.0;43.0
26641;DHT22;14269;47.358;0.724;2024-02-23T15:28:34;15.0;44.0
26641;DHT22;14269;47.358;0.724;2024-02-23T15:31:06;15.0;45.0
26641;DHT22;14269;47.358;0.724;2024-02-23T15:33:39;16.0;44.0
26641;DHT22;14269;47.358;0.724;2024-02-23T15:36:19;16.0;45.0
26641;DHT22;14269;47.358;0.724;2024-02-23T15:38:53;16.0;45.0
26641;DHT22;14269;47.358;0.724;2024-02-23T15:41:34;16.0;45.0
26641;DHT22;14269;47.358;0.724;2024-02-23T15:44:14;16.0;44.0
26641;DHT22;14269;47.358;0.724;2024-02-23T15:46:47;16.0;43.0
26641;DHT22;14269;47.358;0.724;2024-02-23T15:49:18;15.0;43.0
26641;DHT22;14269;47.358;0.724;2024-02-23T15:51:50;15.0;43.0
26641;DHT22;14269;47.358;0.724;2024-02-23T15:54:21;16.0;42.0
26641;DHT22;14269;47.358;0.724;2024-02-23T15:56:53;16.0;42.0
26641;DHT22;14269;47.358;0.724;2024-02-23T15:59:24;15.0;43.0
26641;DHT22;14269;47.358;0.724;2024-02-23T16:01:56;15.0;43.0
26641;DHT22;14269;47.358;0.724;2024-02-23T16:04:38;14.0;47.0
26641;DHT22;14269;47.358;0.724;2024-02-23T16:07:09;14.0;46.0
26641;DHT22;14269;47.358;0.724;2024-02-23T16:09:41;15.0;46.0
26641;DHT22;14269;47.358;0.724;2024-02-23T16:12:13;15.0;46.0
26641;DHT22;14269;47.358;0.724;2024-02-23T16:14:44;15.0;44.0
26641;DHT22;14269;47.358;0.724;2024-02-23T16:17:16;16.0;43.0
26641;DHT22;14269;47.358;0.724;2024-02-23T16:19:47;16.0;44.0
26641;DHT22;14269;47.358;0.724;2024-02-23T16:22:19;16.0;44.0
26641;DHT22;14269;47.358;0.724;2024-02-23T16:24:51;16.0;44.0
26641;DHT22;14269;47.358;0.724;2024-02-23T16:27:22;15.0;45.0
26641;DHT22;14269;47.358;0.724;2024-02-23T16:29:54;15.0;45.0
26641;DHT22;14269;47.358;0.724;2024-02-23T16:32:26;15.0;45.0
26641;DHT22;14269;47.358;0.724;2024-02-23T16:34:57;15.0;45.0
26641;DHT22;14269;47.358;0.724;2024-02-23T16:37:29;15.0;46.0
26641;DHT22;14269;47.358;0.724;2024-02-23T16:40:01;15.0;46.0
26641;DHT22;14269;47.358;0.724;2024-02-23T16:42:32;15.0;46.0
26641;DHT22;14269;47.358;0.724;2024-02-23T16:45:05;15.0;47.0